Time;durP1;ratioP1;P1;durP2;ratioP2;P2;SDS_P1;SDS_P2;PMS_P1;PMS_P2;Temp;Humidity;BMP_temperature;BMP_pressure;BME280_temperature;BME280_humidity;BME280_pressure;Samples;Min_cycle;Max_cycle;Signal;HPM_P1;HPM_P2
2022/02/05 00:01:27;;;;;;;1.75;0.50;;;;;;;6.16;72.72;96722.25;5078934;28;20049;-77
2022/02/05 00:04:00;;;;;;;0.95;0.20;;;;;;;6.10;71.63;96735.81;5078302;28;20052;-79
2022/02/05 00:06:33;;;;;;;0.47;0.47;;;;;;;6.04;71.83;96746.78;5078892;28;20407;-78
2022/02/05 00:09:09;;;;;;;1.13;0.52;;;;;;;5.99;71.79;96742.03;5080281;28;20048;-79
2022/02/05 00:12:05;;;;;;;0.47;0.43;;;;;;;5.91;71.83;96742.75;5075310;28;20060;-76
2022/02/05 00:15:01;;;;;;;0.93;0.57;;;;;;;5.84;71.74;96759.03;5076661;28;20059;-77
2022/02/05 00:33:02;;;;;;;1.05;0.70;;;;;;;5.71;72.27;96788.69;5076531;28;20044;-77
2022/02/05 00:39:59;;;;;;;0.93;0.85;;;;;;;5.29;72.47;96807.31;5080821;28;20048;-78
2022/02/05 00:42:33;;;;;;;1.13;1.00;;;;;;;5.26;72.54;96802.41;5080364;28;20266;-77
2022/02/05 00:45:06;;;;;;;1.50;1.23;;;;;;;5.24;73.29;96804.31;5081098;28;20506;-79
2022/02/05 00:47:34;;;;;;;2.30;1.00;;;;;;;5.20;72.79;96812.50;5081528;28;20517;-77
2022/02/05 00:50:04;;;;;;;1.50;1.05;;;;;;;5.13;72.63;96817.44;5078722;28;20115;-80
2022/02/05 00:52:33;;;;;;;0.73;0.73;;;;;;;5.11;72.97;96832.28;5078359;28;20052;-77
2022/02/05 00:55:07;;;;;;;0.60;0.60;;;;;;;5.08;72.42;96835.97;5078453;28;20056;-79
2022/02/05 00:57:45;;;;;;;0.70;0.60;;;;;;;5.06;72.09;96852.59;5078043;28;20048;-77
2022/02/05 01:00:16;;;;;;;2.60;1.00;;;;;;;5.03;71.78;96852.84;5077401;28;20182;-80
2022/02/05 01:02:44;;;;;;;0.95;0.50;;;;;;;4.98;70.94;96871.38;5078706;28;20041;-77
2022/02/05 01:05:12;;;;;;;0.57;0.43;;;;;;;4.95;71.33;96880.22;5079344;28;20048;-78
2022/02/05 01:07:41;;;;;;;1.90;0.75;;;;;;;4.96;71.58;96878.44;5078101;28;20057;-77
2022/02/05 01:10:09;;;;;;;0.80;0.80;;;;;;;4.94;72.29;96883.78;5078501;28;20048;-77
2022/02/05 01:12:40;;;;;;;0.73;0.40;;;;;;;4.93;72.72;96876.97;5078285;28;20060;-79
2022/02/05 01:15:09;;;;;;;1.10;0.63;;;;;;;4.92;72.67;96885.69;5077303;28;20505;-76
2022/02/05 01:17:41;;;;;;;1.95;0.77;;;;;;;4.93;73.19;96889.88;5077994;28;20068;-77
2022/02/05 01:22:59;;;;;;;0.88;0.63;;;;;;;4.85;72.52;96902.69;5079945;28;20114;-79
2022/02/05 01:25:32;;;;;;;1.50;0.63;;;;;;;4.80;72.45;96904.88;5080458;28;20052;-77
2022/02/05 01:28:07;;;;;;;0.88;0.60;;;;;;;4.78;72.94;96911.16;5080173;28;20101;-77
2022/02/05 01:30:39;;;;;;;2.08;0.82;;;;;;;4.74;73.17;96915.75;5080684;28;20052;-78
2022/02/05 01:33:19;;;;;;;1.75;0.80;;;;;;;4.74;73.14;96916.59;5080741;28;20056;-76
2022/02/05 01:36:01;;;;;;;1.23;0.68;;;;;;;4.73;73.26;96916.72;5081033;28;20060;-78
2022/02/05 01:52:36;;;;;;;0.65;0.57;;;;;;;4.56;71.57;96938.91;5057243;28;20056;-77
2022/02/05 01:55:18;;;;;;;2.30;0.60;;;;;;;4.49;71.87;96948.16;5074776;28;20048;-78
2022/02/05 01:57:57;;;;;;;1.08;0.70;;;;;;;4.47;72.78;96950.84;5079829;28;20056;-80
2022/02/05 02:06:10;;;;;;;1.70;0.68;;;;;;;4.40;72.76;96949.75;5079732;28;20048;-79
2022/02/05 02:11:43;;;;;;;0.90;0.60;;;;;;;4.39;72.46;96944.72;5080283;28;20418;-78
2022/02/05 02:20:05;;;;;;;2.03;1.33;;;;;;;4.39;73.02;96947.31;5077919;28;20052;-77
2022/02/05 02:22:41;;;;;;;1.98;1.13;;;;;;;4.39;73.67;96953.28;5095934;22;20563;-75
2022/02/05 02:25:19;;;;;;;2.72;1.33;;;;;;;4.39;73.33;96955.88;5074184;28;20524;-76
2022/02/05 02:27:57;;;;;;;2.58;1.80;;;;;;;4.39;72.83;96958.44;5074303;28;20501;-76
2022/02/05 02:30:28;;;;;;;2.17;0.95;;;;;;;4.37;72.99;96956.97;5075209;28;20510;-76
2022/02/05 02:33:03;;;;;;;3.15;1.92;;;;;;;4.36;73.58;96950.97;5075075;28;20048;-76
2022/02/05 02:35:33;;;;;;;2.40;1.05;;;;;;;4.33;74.15;96953.84;5074698;28;20048;-76
2022/02/05 02:38:07;;;;;;;2.30;1.20;;;;;;;4.32;74.12;96962.53;5073522;28;20048;-75
2022/02/05 02:40:42;;;;;;;0.85;0.52;;;;;;;4.27;72.82;96962.13;5073875;28;20050;-75
2022/02/05 02:43:15;;;;;;;2.67;1.05;;;;;;;4.21;71.15;96960.06;5073530;28;20045;-75
2022/02/05 02:45:45;;;;;;;1.40;1.10;;;;;;;4.17;73.57;96954.34;5073408;28;20045;-75
2022/02/05 02:48:13;;;;;;;2.20;0.90;;;;;;;4.15;73.68;96960.59;5072996;28;20079;-76
2022/02/05 02:56:43;;;;;;;2.10;0.68;;;;;;;4.02;72.41;96976.31;5072905;28;20422;-76
2022/02/05 02:59:23;;;;;;;1.33;0.85;;;;;;;3.98;73.70;96973.19;5073309;28;20098;-76
2022/02/05 03:01:57;;;;;;;1.77;0.85;;;;;;;3.97;73.59;96976.72;5073028;28;20045;-75
2022/02/05 03:04:24;;;;;;;1.27;1.02;;;;;;;3.94;72.08;96976.97;5073205;28;20048;-76
2022/02/05 03:06:53;;;;;;;1.83;1.20;;;;;;;3.92;73.81;96986.63;5072497;28;20048;-75
2022/02/05 03:09:24;;;;;;;3.88;0.85;;;;;;;3.91;72.75;96997.88;5073120;28;20454;-76
2022/02/05 03:11:52;;;;;;;0.95;0.60;;;;;;;3.88;72.65;96995.56;5073065;28;20092;-75
2022/02/05 03:14:19;;;;;;;1.83;1.10;;;;;;;3.87;73.85;96991.34;5073187;28;20063;-75
2022/02/05 03:16:51;;;;;;;1.15;0.95;;;;;;;3.90;75.29;97004.00;5072535;28;20052;-75
2022/02/05 03:19:19;;;;;;;0.90;0.90;;;;;;;3.92;74.40;96997.75;5072684;28;20052;-76
2022/02/05 03:21:47;;;;;;;1.08;0.98;;;;;;;3.89;74.76;96997.19;5072729;28;20098;-75
2022/02/05 03:24:14;;;;;;;1.75;1.17;;;;;;;3.90;75.38;97011.75;5073070;28;20059;-77
2022/02/05 03:26:43;;;;;;;1.98;1.15;;;;;;;3.87;75.64;97010.25;5073359;28;20056;-76
2022/02/05 03:29:12;;;;;;;2.85;1.48;;;;;;;3.87;76.25;97005.09;5073031;28;20059;-76
2022/02/05 03:31:40;;;;;;;2.28;1.17;;;;;;;3.85;74.29;97019.06;5072813;28;20048;-76
2022/02/05 03:34:07;;;;;;;2.47;1.02;;;;;;;3.81;74.56;97023.66;5072925;28;20044;-76
2022/02/05 03:36:39;;;;;;;1.27;1.17;;;;;;;3.82;74.84;97017.53;5072415;28;20045;-75
2022/02/05 03:39:07;;;;;;;1.45;1.08;;;;;;;3.79;74.40;97024.72;5073433;28;20135;-75
2022/02/05 03:41:34;;;;;;;2.10;1.30;;;;;;;3.72;73.82;97027.81;5084090;28;20046;-76
2022/02/05 03:44:04;;;;;;;3.97;1.50;;;;;;;3.66;73.56;97030.91;5082310;28;20044;-75
2022/02/05 03:46:32;;;;;;;1.25;1.10;;;;;;;3.63;74.91;97031.19;5081707;28;20065;-76
2022/02/05 03:48:59;;;;;;;2.22;1.08;;;;;;;3.57;73.00;97034.25;5081422;28;20453;-76
2022/02/05 03:51:27;;;;;;;1.65;1.20;;;;;;;3.54;74.53;97041.44;5081126;28;20134;-76
2022/02/05 03:53:54;;;;;;;1.88;1.40;;;;;;;3.55;75.46;97040.50;5073520;28;20063;-75
2022/02/05 03:56:22;;;;;;;1.90;1.33;;;;;;;3.58;76.17;97048.78;5072254;28;20055;-76
2022/02/05 03:58:49;;;;;;;2.25;1.20;;;;;;;3.60;75.63;97053.81;5072336;28;20048;-76
2022/02/05 04:01:18;;;;;;;3.83;1.40;;;;;;;3.60;76.33;97053.81;5071627;28;20052;-76
2022/02/05 04:03:45;;;;;;;1.38;1.20;;;;;;;3.59;75.68;97053.00;5072057;28;20517;-76
2022/02/05 04:06:13;;;;;;;2.55;1.17;;;;;;;3.56;74.66;97055.00;5071950;28;20045;-76
2022/02/05 04:08:40;;;;;;;4.63;1.65;;;;;;;3.57;75.56;97052.31;5076121;28;20051;-75
2022/02/05 04:11:13;;;;;;;1.73;1.02;;;;;;;3.55;73.87;97056.78;5083222;28;20053;-76
2022/02/05 04:16:27;;;;;;;2.38;1.00;;;;;;;3.50;73.31;97058.94;5082171;28;20048;-76
2022/02/05 04:18:56;;;;;;;4.90;0.98;;;;;;;3.43;73.04;97058.63;5077835;28;20044;-75
2022/02/05 04:21:25;;;;;;;1.83;1.30;;;;;;;3.36;72.49;97069.53;5072358;28;20053;-76
2022/02/05 04:23:53;;;;;;;4.80;1.17;;;;;;;3.25;70.85;97065.25;5072150;28;20048;-76
2022/02/05 04:26:22;;;;;;;2.42;1.13;;;;;;;3.14;71.97;97076.44;5071795;28;20056;-75
2022/02/05 04:28:49;;;;;;;7.75;2.47;;;;;;;3.12;71.59;97080.09;5072273;28;20052;-75
2022/02/05 04:31:16;;;;;;;1.92;1.10;;;;;;;3.12;72.91;97080.91;5072171;28;20097;-76
2022/02/05 04:33:45;;;;;;;4.97;1.30;;;;;;;3.14;71.67;97094.47;5072209;28;20052;-76
2022/02/05 04:36:14;;;;;;;4.10;1.00;;;;;;;3.06;70.68;97095.09;5071634;28;20517;-75
2022/02/05 04:38:44;;;;;;;3.10;1.10;;;;;;;2.91;69.87;97101.47;5072181;28;20056;-76
2022/02/05 04:41:16;;;;;;;2.40;1.00;;;;;;;2.79;70.69;97097.28;5071903;28;20048;-76
2022/02/05 04:43:57;;;;;;;1.55;1.00;;;;;;;2.76;70.92;97106.09;5072118;28;20110;-77
2022/02/05 04:49:44;;;;;;;3.15;1.77;;;;;;;2.95;75.51;97109.78;5072173;28;20048;-77
2022/02/05 04:55:16;;;;;;;4.45;1.55;;;;;;;3.16;75.27;97115.81;5071866;28;20045;-76
2022/02/05 04:58:04;;;;;;;2.58;1.42;;;;;;;3.22;75.44;97117.91;5071790;28;20407;-77
2022/02/05 05:00:52;;;;;;;3.75;1.60;;;;;;;3.30;75.98;97115.53;5072092;28;20048;-75
2022/02/05 05:03:38;;;;;;;2.63;1.20;;;;;;;3.39;73.29;97118.28;5071475;28;20048;-75
2022/02/05 05:06:27;;;;;;;2.75;1.67;;;;;;;3.43;74.92;97124.84;5071632;28;20048;-76
2022/02/05 05:09:09;;;;;;;3.55;1.48;;;;;;;3.51;75.91;97130.19;5071612;28;20494;-75
2022/02/05 05:11:52;;;;;;;2.10;1.50;;;;;;;3.56;75.37;97125.47;5072927;28;20060;-76
2022/02/05 05:19:51;;;;;;;2.15;1.20;;;;;;;3.53;73.88;97136.06;5075299;28;20457;-75
2022/02/05 05:22:19;;;;;;;2.30;1.42;;;;;;;3.55;74.58;97129.00;5074809;28;20044;-76
2022/02/05 05:24:47;;;;;;;3.38;1.73;;;;;;;3.57;74.86;97132.28;5075028;28;20054;-75
2022/02/05 05:27:14;;;;;;;2.85;1.90;;;;;;;3.59;74.53;97140.72;5074633;28;20052;-76
2022/02/05 05:29:42;;;;;;;4.10;2.15;;;;;;;3.62;75.17;97143.03;5075018;28;20407;-76
2022/02/05 05:32:09;;;;;;;5.00;2.22;;;;;;;3.63;73.41;97142.09;5075271;28;20448;-75
2022/02/05 05:34:37;;;;;;;3.20;1.58;;;;;;;3.63;72.87;97146.44;5074903;28;20627;-76
2022/02/05 05:37:05;;;;;;;7.07;1.85;;;;;;;3.66;74.28;97147.00;5074344;28;20109;-75
2022/02/05 05:39:35;;;;;;;4.45;1.65;;;;;;;3.69;74.94;97157.06;5075001;28;20052;-75
2022/02/05 05:42:06;;;;;;;5.38;2.15;;;;;;;3.71;74.15;97151.78;5074856;28;20048;-75
2022/02/05 05:47:49;;;;;;;3.95;1.70;;;;;;;3.67;72.84;97155.56;5089618;27;20355;-76
2022/02/05 05:52:58;;;;;;;5.75;2.40;;;;;;;3.75;73.85;97165.28;5089630;28;20048;-76
2022/02/05 05:55:27;;;;;;;4.35;1.88;;;;;;;3.71;72.40;97164.69;5089690;28;20413;-76
2022/02/05 05:57:56;;;;;;;4.03;2.15;;;;;;;3.67;72.88;97163.28;5089748;28;20056;-76
2022/02/05 06:00:23;;;;;;;2.75;1.70;;;;;;;3.68;73.13;97164.94;5089593;28;20559;-76
2022/02/05 06:02:52;;;;;;;4.35;1.83;;;;;;;3.70;74.40;97158.72;5089610;28;20058;-76
2022/02/05 06:05:19;;;;;;;3.03;1.75;;;;;;;3.68;72.73;97160.59;5089546;28;20052;-76
2022/02/05 06:07:47;;;;;;;4.90;1.83;;;;;;;3.62;71.63;97163.66;5089159;28;20052;-76
2022/02/05 06:10:14;;;;;;;6.38;1.63;;;;;;;3.61;73.18;97156.88;5089280;28;20052;-76
2022/02/05 06:12:42;;;;;;;6.18;2.33;;;;;;;3.63;73.38;97167.06;5089364;28;20048;-76
2022/02/05 06:15:10;;;;;;;4.88;1.58;;;;;;;3.60;72.19;97167.31;5089383;28;20063;-76
2022/02/05 06:17:38;;;;;;;2.10;1.50;;;;;;;3.55;70.51;97178.03;5089172;28;20429;-76
2022/02/05 06:20:08;;;;;;;3.15;1.77;;;;;;;3.53;70.62;97182.47;5089250;28;20048;-76
2022/02/05 06:22:37;;;;;;;3.45;2.20;;;;;;;3.55;72.03;97185.75;5089291;28;20501;-76
2022/02/05 06:25:06;;;;;;;5.72;2.33;;;;;;;3.53;71.53;97187.63;5089315;28;20060;-76
2022/02/05 06:27:34;;;;;;;12.35;4.15;;;;;;;3.55;73.79;97190.91;5088722;28;20497;-76
2022/02/05 06:30:01;;;;;;;6.75;2.22;;;;;;;3.62;72.72;97188.66;5089184;28;20049;-76
2022/02/05 06:32:29;;;;;;;2.95;2.08;;;;;;;3.66;73.76;97198.59;5088975;28;20048;-76
2022/02/05 06:34:56;;;;;;;6.10;2.35;;;;;;;3.70;73.74;97210.31;5088970;28;20052;-77
2022/02/05 06:37:25;;;;;;;4.18;1.75;;;;;;;3.72;73.85;97213.59;5088508;28;20094;-76
2022/02/05 06:39:52;;;;;;;4.05;1.80;;;;;;;3.77;75.14;97207.25;5088431;28;20501;-76
2022/02/05 06:42:20;;;;;;;2.10;1.50;;;;;;;3.80;73.06;97204.41;5082340;28;20048;-76
2022/02/05 06:44:47;;;;;;;6.65;1.98;;;;;;;3.76;70.62;97209.03;5087157;28;20494;-76
2022/02/05 06:47:15;;;;;;;2.58;1.48;;;;;;;3.69;69.78;97213.00;5088147;28;20044;-77
2022/02/05 06:49:42;;;;;;;4.47;2.00;;;;;;;3.67;71.72;97205.41;5088668;28;20051;-76
2022/02/05 06:52:11;;;;;;;3.40;2.00;;;;;;;3.70;73.19;97210.31;5088856;28;20044;-76
2022/02/05 06:54:39;;;;;;;3.83;1.70;;;;;;;3.71;72.79;97216.28;5088833;28;20054;-77
2022/02/05 06:57:07;;;;;;;2.83;1.83;;;;;;;3.75;72.79;97229.78;5084619;28;20447;-76
2022/02/05 06:59:35;;;;;;;5.10;1.88;;;;;;;3.75;73.69;97222.03;5074977;28;20552;-77
2022/02/05 07:02:02;;;;;;;5.00;1.73;;;;;;;3.78;73.95;97221.78;5074994;28;20063;-76
2022/02/05 07:04:30;;;;;;;3.92;1.83;;;;;;;3.82;73.64;97233.50;5075307;28;20110;-76
2022/02/05 07:06:58;;;;;;;5.05;2.25;;;;;;;3.80;72.17;97232.78;5074762;28;20041;-76
2022/02/05 07:09:28;;;;;;;4.28;2.40;;;;;;;3.81;73.63;97234.44;5075370;28;20047;-76
2022/02/05 07:11:59;;;;;;;3.75;1.63;;;;;;;3.78;70.67;97239.84;5075109;28;20044;-76
2022/02/05 07:14:31;;;;;;;3.47;2.00;;;;;;;3.75;72.65;97255.59;5074933;28;20101;-76
2022/02/05 07:17:04;;;;;;;3.78;2.13;;;;;;;3.79;72.80;97254.41;5075239;28;20044;-75
2022/02/05 07:19:44;;;;;;;4.82;2.40;;;;;;;3.82;73.77;97261.88;5054839;28;20053;-76
2022/02/05 07:22:12;;;;;;;4.95;2.40;;;;;;;3.84;73.23;97260.81;5055212;28;20053;-75
2022/02/05 07:24:58;;;;;;;3.67;2.30;;;;;;;3.85;74.11;97264.22;5054956;28;20056;-76
2022/02/05 07:30:15;;;;;;;3.45;2.58;;;;;;;3.86;74.70;97268.44;5054959;28;20136;-76
2022/02/05 07:32:54;;;;;;;4.53;1.98;;;;;;;3.87;73.37;97267.47;5054483;28;20083;-76
2022/02/05 07:35:21;;;;;;;3.38;1.98;;;;;;;3.86;73.67;97266.66;5059589;28;20557;-76
2022/02/05 07:37:52;;;;;;;6.10;2.42;;;;;;;3.88;73.86;97279.47;5062163;28;20047;-76
2022/02/05 07:40:20;;;;;;;2.25;1.73;;;;;;;3.84;73.21;97272.91;5063548;28;20047;-76
2022/02/05 07:42:49;;;;;;;4.90;2.40;;;;;;;3.84;74.16;97278.06;5062669;28;20056;-76
2022/02/05 07:45:19;;;;;;;2.60;2.17;;;;;;;3.85;74.25;97279.72;5057908;28;20049;-76
2022/02/05 07:47:47;;;;;;;2.90;2.33;;;;;;;3.88;73.84;97279.47;5054638;28;20071;-76
2022/02/05 07:50:14;;;;;;;5.38;2.30;;;;;;;3.89;73.79;97279.34;5054426;28;20083;-77
2022/02/05 07:52:42;;;;;;;3.83;2.22;;;;;;;3.91;73.79;97289.53;5066596;28;20052;-76
2022/02/05 07:55:10;;;;;;;3.63;2.30;;;;;;;3.92;73.99;97283.44;5074153;28;20052;-75
2022/02/05 07:57:37;;;;;;;6.18;3.05;;;;;;;3.91;74.62;97284.38;5073634;28;20102;-76
2022/02/05 08:00:08;;;;;;;5.50;2.60;;;;;;;3.95;74.76;97290.94;5073911;28;20051;-76
2022/02/05 08:02:35;;;;;;;3.92;2.35;;;;;;;3.97;72.79;97285.66;5073689;28;20052;-76
2022/02/05 08:05:03;;;;;;;6.82;3.00;;;;;;;3.99;72.87;97291.50;5075342;28;20056;-76
2022/02/05 08:07:30;;;;;;;5.88;2.83;;;;;;;4.02;72.93;97286.91;5074830;28;20045;-76
2022/02/05 08:10:01;;;;;;;4.78;2.55;;;;;;;4.04;73.72;97291.94;5073921;28;20125;-76
2022/02/05 08:12:30;;;;;;;6.57;2.95;;;;;;;4.08;72.88;97293.34;5073755;28;20048;-76
2022/02/05 08:15:00;;;;;;;3.55;2.65;;;;;;;4.13;73.34;97304.94;5074053;28;20498;-76
2022/02/05 08:17:31;;;;;;;3.10;1.92;;;;;;;4.17;73.08;97309.84;5073584;28;20048;-76
2022/02/05 08:19:59;;;;;;;4.97;2.85;;;;;;;4.19;73.00;97302.81;5073609;28;20102;-76
2022/02/05 08:22:28;;;;;;;6.25;1.95;;;;;;;4.25;71.63;97304.91;5074043;28;20052;-76
2022/02/05 08:24:55;;;;;;;4.55;2.60;;;;;;;4.33;72.88;97305.09;5073826;28;20118;-76
2022/02/05 08:27:23;;;;;;;3.42;2.00;;;;;;;4.41;72.40;97309.63;5073579;28;20056;-77
2022/02/05 08:29:55;;;;;;;6.38;2.42;;;;;;;4.46;72.01;97318.66;5073477;28;20536;-76
2022/02/05 08:32:25;;;;;;;4.75;2.20;;;;;;;4.54;72.07;97320.59;5073773;28;20056;-76
2022/02/05 08:34:55;;;;;;;4.15;2.88;;;;;;;4.61;70.48;97329.47;5073378;28;20060;-76
2022/02/05 08:37:22;;;;;;;4.90;2.50;;;;;;;4.71;71.41;97314.03;5073170;28;20057;-76
2022/02/05 08:39:50;;;;;;;5.13;2.03;;;;;;;4.82;69.58;97315.72;5073416;28;20418;-76
2022/02/05 08:42:17;;;;;;;3.42;2.03;;;;;;;4.87;69.95;97323.91;5073143;28;20051;-76
2022/02/05 08:44:45;;;;;;;5.60;2.00;;;;;;;4.96;70.25;97317.97;5073310;28;20114;-76
2022/02/05 08:47:12;;;;;;;6.45;1.92;;;;;;;4.97;67.85;97319.63;5071447;28;20393;-76
2022/02/05 08:49:40;;;;;;;4.43;2.00;;;;;;;4.97;66.88;97322.19;5071418;28;20502;-77
2022/02/05 08:52:10;;;;;;;3.47;1.83;;;;;;;5.05;69.81;97334.47;5071240;28;20086;-76
2022/02/05 08:54:39;;;;;;;2.28;1.70;;;;;;;5.14;70.14;97331.13;5071506;28;20047;-76
2022/02/05 08:57:08;;;;;;;2.00;1.75;;;;;;;5.22;69.86;97330.47;5071194;28;20351;-76
2022/02/05 08:59:46;;;;;;;5.75;1.60;;;;;;;5.31;69.65;97335.69;5071273;28;20453;-76
2022/02/05 09:02:19;;;;;;;3.70;2.45;;;;;;;5.39;70.73;97339.38;5072188;28;20044;-76
2022/02/05 09:04:53;;;;;;;6.53;1.80;;;;;;;5.46;69.92;97337.91;5073007;28;20052;-76
2022/02/05 09:07:22;;;;;;;2.58;1.60;;;;;;;5.51;69.80;97338.31;5072810;28;20056;-76
2022/02/05 09:10:03;;;;;;;5.80;2.10;;;;;;;5.55;69.61;97340.53;5073183;28;20055;-76
2022/02/05 09:13:05;;;;;;;3.88;1.95;;;;;;;5.60;69.89;97353.09;5072998;28;20056;-76
2022/02/05 09:15:20;;;;;;;3.13;1.80;;;;;;;5.64;69.53;97348.44;5072681;28;20059;-76
2022/02/05 09:17:47;;;;;;;3.40;1.50;;;;;;;5.64;68.26;97351.88;5073076;28;20052;-76
2022/02/05 09:20:15;;;;;;;4.10;1.65;;;;;;;5.62;66.52;97350.34;5072550;28;20102;-76
2022/02/05 09:22:44;;;;;;;5.82;1.58;;;;;;;5.58;64.83;97349.81;5072801;28;20422;-76
2022/02/05 09:25:14;;;;;;;4.28;2.03;;;;;;;5.58;66.43;97349.81;5072689;28;20060;-76
2022/02/05 09:27:45;;;;;;;4.00;1.50;;;;;;;5.54;65.47;97348.44;5072562;28;20052;-76
2022/02/05 09:30:15;;;;;;;4.30;1.92;;;;;;;5.54;67.43;97353.59;5072510;28;20063;-76
2022/02/05 09:32:43;;;;;;;3.00;1.50;;;;;;;5.55;66.21;97352.63;5072426;28;20052;-76
2022/02/05 09:35:12;;;;;;;4.28;1.90;;;;;;;5.55;67.03;97353.47;5072881;28;20044;-76
2022/02/05 09:37:40;;;;;;;3.92;1.55;;;;;;;5.59;67.56;97348.84;5072385;28;20040;-76
2022/02/05 09:40:09;;;;;;;5.68;1.35;;;;;;;5.63;65.10;97360.56;5072841;28;20055;-76
2022/02/05 09:42:44;;;;;;;2.28;1.30;;;;;;;5.68;68.03;97363.56;5072679;28;20064;-76
2022/02/05 09:45:12;;;;;;;5.03;1.95;;;;;;;5.68;66.80;97358.41;5073008;28;20494;-76
2022/02/05 09:47:39;;;;;;;3.67;1.65;;;;;;;5.73;67.07;97361.44;5072315;28;20045;-76
2022/02/05 09:50:07;;;;;;;3.55;1.10;;;;;;;5.81;65.29;97352.16;5072579;28;20056;-76
2022/02/05 09:52:35;;;;;;;4.80;1.40;;;;;;;5.84;64.79;97354.47;5072537;28;20055;-76
2022/02/05 09:55:03;;;;;;;4.32;1.88;;;;;;;5.85;66.28;97350.97;5072357;28;20049;-76
2022/02/05 09:57:32;;;;;;;5.45;1.85;;;;;;;5.92;64.45;97355.44;5072262;28;20051;-76
2022/02/05 10:00:01;;;;;;;2.53;1.48;;;;;;;6.01;63.16;97353.84;5072587;28;20110;-77
2022/02/05 10:02:34;;;;;;;5.63;1.35;;;;;;;6.10;62.30;97354.81;5072558;28;20048;-76
2022/02/05 10:05:06;;;;;;;5.90;1.30;;;;;;;6.21;63.96;97349.53;5072708;28;20056;-76
2022/02/05 10:07:56;;;;;;;5.72;1.63;;;;;;;6.28;63.69;97357.59;5071802;28;20387;-76
2022/02/05 10:10:25;;;;;;;6.00;1.63;;;;;;;6.30;64.69;97351.31;5072332;28;20052;-76
2022/02/05 10:13:15;;;;;;;4.35;1.30;;;;;;;6.28;64.37;97366.16;5072262;28;20053;-76
2022/02/05 10:15:43;;;;;;;4.68;1.27;;;;;;;6.31;63.46;97359.91;5072249;28;20049;-76
2022/02/05 10:18:23;;;;;;;4.15;1.63;;;;;;;6.31;63.01;97368.47;5072001;28;20048;-77
2022/02/05 10:20:51;;;;;;;3.25;1.55;;;;;;;6.43;64.47;97366.59;5072452;28;20049;-76
2022/02/05 10:23:18;;;;;;;5.80;1.40;;;;;;;6.49;62.30;97371.19;5072556;28;20052;-77
2022/02/05 10:25:49;;;;;;;4.60;1.50;;;;;;;6.48;63.48;97363.59;5071905;28;20048;-76
2022/02/05 10:28:18;;;;;;;4.40;1.60;;;;;;;6.45;63.00;97364.69;5072161;28;20049;-76
2022/02/05 10:30:50;;;;;;;6.72;1.60;;;;;;;6.41;62.66;97363.31;5072246;28;20048;-76
2022/02/05 10:33:21;;;;;;;5.07;1.55;;;;;;;6.38;61.17;97358.38;5074559;28;20052;-76
2022/02/05 10:35:54;;;;;;;2.78;1.38;;;;;;;6.38;63.85;97360.97;5075862;28;20054;-76
2022/02/05 10:38:53;;;;;;;;;;;;;;;6.46;62.00;97365.50;5076201;28;20110;-76
2022/02/05 10:44:15;;;;;;;5.53;1.80;;;;;;;7.43;61.24;97368.69;5075707;28;20049;-76
2022/02/05 10:46:44;;;;;;;4.00;2.35;;;;;;;8.06;60.39;97356.72;5075300;28;20493;-76
2022/02/05 10:49:12;;;;;;;2.88;1.10;;;;;;;9.11;55.80;97367.34;5075559;28;20041;-76
2022/02/05 10:51:44;;;;;;;3.55;1.50;;;;;;;8.76;56.72;97377.69;5075754;28;20418;-76
2022/02/05 10:54:22;;;;;;;5.53;2.05;;;;;;;9.03;56.43;97371.56;5076522;28;20109;-79
2022/02/05 10:57:05;;;;;;;5.47;1.50;;;;;;;9.48;52.00;97373.09;5076307;28;20052;-77
2022/02/05 11:00:10;;;;;;;4.68;0.95;;;;;;;9.80;50.35;97366.38;5076340;28;20102;-77
2022/02/05 11:05:35;;;;;;;2.70;1.98;;;;;;;9.72;55.98;97371.56;5075567;28;20055;-77
2022/02/05 11:08:03;;;;;;;5.28;1.92;;;;;;;11.14;51.56;97371.41;5075106;28;20455;-77
2022/02/05 11:13:21;;;;;;;3.63;1.60;;;;;;;12.63;48.66;97364.50;5075877;28;20075;-77
2022/02/05 11:18:54;;;;;;;4.50;1.60;;;;;;;15.95;43.47;97379.53;5074962;28;20056;-77
2022/02/05 11:21:44;;;;;;;2.25;1.63;;;;;;;17.56;37.53;97376.03;5075534;28;20102;-77
2022/02/05 11:24:13;;;;;;;2.78;1.70;;;;;;;18.47;38.58;97367.09;5075544;28;20048;-77
2022/02/05 11:26:41;;;;;;;4.28;1.80;;;;;;;19.75;36.59;97372.97;5075287;28;20514;-78
2022/02/05 11:29:27;;;;;;;3.38;1.40;;;;;;;20.07;30.75;97373.63;5075747;28;20049;-77
2022/02/05 11:32:16;;;;;;;4.97;1.65;;;;;;;19.89;33.04;97382.38;5075073;28;20100;-78
2022/02/05 11:34:50;;;;;;;3.38;1.38;;;;;;;20.14;30.97;97371.69;5075319;28;20106;-78
2022/02/05 11:37:18;;;;;;;2.92;1.25;;;;;;;18.91;34.69;97375.16;5074897;28;20064;-77
2022/02/05 11:39:47;;;;;;;1.63;1.23;;;;;;;17.08;36.64;97366.56;5075420;28;20102;-77
2022/02/05 11:42:26;;;;;;;3.15;1.13;;;;;;;15.99;35.55;97359.72;5075111;28;20045;-77
2022/02/05 11:44:55;;;;;;;2.70;1.33;;;;;;;15.52;38.26;97358.66;5074732;28;20055;-77
2022/02/05 11:47:32;;;;;;;2.42;1.33;;;;;;;15.61;38.05;97360.16;5074774;28;20044;-77
2022/02/05 11:50:27;;;;;;;3.47;1.20;;;;;;;14.51;39.49;97351.03;5075201;28;20079;-77
2022/02/05 11:53:00;;;;;;;2.42;1.20;;;;;;;13.66;42.72;97354.34;5039809;28;20052;-77
2022/02/05 11:55:37;;;;;;;4.43;1.50;;;;;;;12.96;44.14;97336.22;5079366;28;20048;-78
2022/02/05 11:58:08;;;;;;;3.75;1.42;;;;;;;12.35;46.02;97335.44;5084512;28;20078;-77
2022/02/05 12:00:38;;;;;;;5.18;1.60;;;;;;;11.80;47.05;97342.44;5084619;28;20060;-78
2022/02/05 12:03:28;;;;;;;4.80;1.80;;;;;;;11.36;48.04;97339.53;5084308;28;20052;-78
2022/02/05 12:06:01;;;;;;;3.35;1.17;;;;;;;11.00;45.49;97338.16;5084155;28;20052;-78
2022/02/05 12:08:30;;;;;;;5.13;1.45;;;;;;;11.14;48.44;97334.84;5082206;28;20044;-77
2022/02/05 12:11:01;;;;;;;4.70;1.40;;;;;;;11.87;47.46;97332.94;5074617;28;20056;-77
2022/02/05 12:13:34;;;;;;;2.42;1.63;;;;;;;12.07;46.86;97342.97;5074527;28;20053;-77
2022/02/05 12:16:21;;;;;;;6.30;1.73;;;;;;;11.96;44.92;97336.38;5073904;28;20056;-78
2022/02/05 12:19:13;;;;;;;4.07;1.10;;;;;;;13.86;44.51;97323.94;5083712;28;20044;-78
2022/02/05 12:21:58;;;;;;;5.13;1.70;;;;;;;15.06;38.78;97332.91;5079444;28;20056;-78
2022/02/05 12:24:40;;;;;;;3.38;1.60;;;;;;;16.58;39.84;97324.00;5084393;28;20056;-78
2022/02/05 12:27:32;;;;;;;4.00;1.63;;;;;;;17.38;36.92;97320.47;5091904;28;20045;-78
2022/02/05 12:30:38;;;;;;;2.40;1.08;;;;;;;16.33;37.39;97318.47;5092694;28;20048;-78
2022/02/05 12:33:09;;;;;;;3.03;1.48;;;;;;;15.92;37.52;97308.06;5091414;28;20472;-77
2022/02/05 12:35:51;;;;;;;3.72;1.00;;;;;;;15.88;37.31;97306.88;5091113;28;20056;-78
2022/02/05 12:38:20;;;;;;;3.37;1.33;;;;;;;15.20;40.96;97310.19;5091898;28;20047;-78
2022/02/05 12:40:51;;;;;;;3.88;1.20;;;;;;;14.85;39.54;97307.53;5093642;28;20352;-77
2022/02/05 12:43:20;;;;;;;3.30;1.30;;;;;;;14.18;38.81;97295.63;5093710;28;20136;-77
2022/02/05 12:45:55;;;;;;;4.22;1.00;;;;;;;13.36;42.95;97301.97;5091855;28;20048;-78
2022/02/05 12:48:27;;;;;;;3.92;1.20;;;;;;;12.63;43.50;97304.31;5082797;28;20044;-78
2022/02/05 12:50:59;;;;;;;2.47;1.02;;;;;;;12.01;43.30;97305.28;5073885;28;20048;-77
2022/02/05 12:53:31;;;;;;;3.80;1.20;;;;;;;11.54;46.01;97306.13;5073961;28;20098;-77
2022/02/05 12:56:10;;;;;;;;;;;;;;;11.39;46.36;97305.22;5073416;28;20048;-77
2022/02/05 12:58:52;;;;;;;3.47;1.27;;;;;;;11.18;46.69;97311.03;5073759;28;19920;-78
2022/02/05 13:01:20;;;;;;;4.10;1.65;;;;;;;10.94;44.87;97307.50;5073772;28;20418;-77
2022/02/05 13:03:47;;;;;;;3.60;0.90;;;;;;;10.68;47.73;97305.09;5074073;28;20049;-77
2022/02/05 13:06:20;;;;;;;4.20;1.05;;;;;;;10.40;46.21;97302.00;5073590;28;20045;-77
2022/02/05 13:08:50;;;;;;;2.10;1.00;;;;;;;10.19;48.81;97308.50;5073177;28;20044;-78
2022/02/05 13:11:27;;;;;;;2.65;1.20;;;;;;;9.95;48.33;97300.63;5073920;28;20044;-79
2022/02/05 13:13:55;;;;;;;2.47;0.90;;;;;;;9.73;50.71;97310.69;5072944;28;20055;-79
2022/02/05 13:16:25;;;;;;;4.20;1.05;;;;;;;9.61;51.36;97302.31;5073326;28;20048;-77
2022/02/05 13:19:02;;;;;;;3.05;1.10;;;;;;;9.51;51.57;97293.00;5073410;28;20044;-77
2022/02/05 13:27:47;;;;;;;2.42;0.95;;;;;;;9.12;51.82;97296.09;5053324;28;20046;-77
2022/02/05 13:33:50;;;;;;;2.70;1.10;;;;;;;8.96;53.73;97282.03;5061626;28;20120;-77
2022/02/05 13:36:22;;;;;;;3.70;1.20;;;;;;;8.88;53.13;97289.81;5072653;28;20049;-77
2022/02/05 13:39:07;;;;;;;3.35;1.02;;;;;;;8.81;52.96;97293.97;5086123;28;20048;-77
2022/02/05 13:41:41;;;;;;;2.97;1.00;;;;;;;8.79;53.26;97275.09;5093825;28;20041;-77
2022/02/05 13:44:13;;;;;;;4.95;1.63;;;;;;;8.77;50.35;97279.69;5093761;28;20033;-77
2022/02/05 13:46:41;;;;;;;9.13;2.88;;;;;;;8.71;49.61;97281.09;5075550;28;20152;-77